RYR84LQ LIRP-EGCC
Flight info
| Callsign | RYR84LQ |
|---|---|
| Flight time | 1h 54m |
| Altitude | 36000 |
| Route | SPEZI6F SPEZI DCT OTMUV DCT AOSTA DCT ORSUD DCT MOLUS DCT IBODI DCT GOTED DCT TRO DCT CLM DCT KOPOR DCT VESAN DCT RATUK DCT SOVAT L613 SANDY UN57 WELIN T420 ELVOS ELVOS1M |
| Aircraft | B738/M-SDE2E3FGHIRWXY/LB1 |
Departure
| Time | 2026-05-04 13:14 |
|---|---|
| Airport | Pisa International Airport (LIRP) |
Arrival
| Time | 2026-05-04 15:09 |
|---|---|
| Airport | Manchester Airport (EGCC) |
| Time | Latitude | Longitude | Altitude | Speed | Heading |
|---|---|---|---|---|---|
| 2026-05-04 12:52 | 43.69761 | 10.39953 | 16 ft | 0 kts | 39° |
| 2026-05-04 12:53 | 43.69749 | 10.40031 | 14 ft | 0 kts | 9° |
| 2026-05-04 13:07 | 43.69733 | 10.40028 | 14 ft | 4 kts | 9° |
| 2026-05-04 13:07 | 43.69709 | 10.40022 | 14 ft | 4 kts | 14° |
| 2026-05-04 13:08 | 43.69690 | 10.40008 | 16 ft | 4 kts | 70° |
| 2026-05-04 13:08 | 43.69688 | 10.39976 | 18 ft | 3 kts | 98° |
| 2026-05-04 13:08 | 43.69689 | 10.39967 | 16 ft | 0 kts | 99° |
| 2026-05-04 13:11 | 43.69689 | 10.39968 | 14 ft | 1 kts | 99° |
| 2026-05-04 13:11 | 43.69685 | 10.40006 | 15 ft | 7 kts | 100° |
| 2026-05-04 13:11 | 43.69647 | 10.40054 | 14 ft | 9 kts | 171° |
| 2026-05-04 13:11 | 43.69583 | 10.40067 | 14 ft | 10 kts | 172° |
| 2026-05-04 13:12 | 43.69513 | 10.40081 | 16 ft | 11 kts | 172° |
| 2026-05-04 13:12 | 43.69438 | 10.40096 | 19 ft | 11 kts | 172° |
| 2026-05-04 13:12 | 43.69372 | 10.40131 | 22 ft | 10 kts | 132° |
| 2026-05-04 13:12 | 43.69328 | 10.40208 | 18 ft | 13 kts | 128° |
| 2026-05-04 13:13 | 43.69276 | 10.40302 | 19 ft | 10 kts | 129° |
| 2026-05-04 13:13 | 43.69232 | 10.40311 | 19 ft | 2 kts | 218° |
| 2026-05-04 13:13 | 43.69228 | 10.40306 | 19 ft | 4 kts | 219° |
| 2026-05-04 13:13 | 43.69029 | 10.40100 | 19 ft | 74 kts | 217° |
| 2026-05-04 13:14 | 43.68431 | 10.39484 | 19 ft | 138 kts | 216° |
| 2026-05-04 13:14 | 43.67536 | 10.38620 | 391 ft | 167 kts | 214° |
| 2026-05-04 13:14 | 43.66553 | 10.37637 | 1144 ft | 181 kts | 214° |
| 2026-05-04 13:14 | 43.65548 | 10.36623 | 2161 ft | 174 kts | 214° |
| 2026-05-04 13:15 | 43.64530 | 10.35560 | 2603 ft | 195 kts | 215° |
| 2026-05-04 13:15 | 43.63475 | 10.34272 | 2944 ft | 213 kts | 233° |
| 2026-05-04 13:15 | 43.63034 | 10.32302 | 3459 ft | 222 kts | 268° |
| 2026-05-04 13:15 | 43.63539 | 10.30270 | 3925 ft | 234 kts | 304° |
| 2026-05-04 13:16 | 43.64550 | 10.28466 | 4492 ft | 240 kts | 306° |
| 2026-05-04 13:16 | 43.65573 | 10.26632 | 5195 ft | 240 kts | 306° |
| 2026-05-04 13:16 | 43.66581 | 10.24799 | 5898 ft | 241 kts | 305° |
| 2026-05-04 13:16 | 43.67599 | 10.22935 | 6537 ft | 245 kts | 305° |
| 2026-05-04 13:17 | 43.68849 | 10.21299 | 7032 ft | 257 kts | 329° |
| 2026-05-04 13:17 | 43.70478 | 10.20138 | 7479 ft | 269 kts | 332° |
| 2026-05-04 13:17 | 43.72154 | 10.18947 | 8094 ft | 273 kts | 332° |
| 2026-05-04 13:17 | 43.73841 | 10.17716 | 8732 ft | 277 kts | 331° |
| 2026-05-04 13:18 | 43.75543 | 10.16459 | 9452 ft | 278 kts | 330° |
| 2026-05-04 13:18 | 43.77257 | 10.15185 | 10087 ft | 282 kts | 329° |
| 2026-05-04 13:18 | 43.78768 | 10.13492 | 10688 ft | 279 kts | 302° |
| 2026-05-04 13:18 | 43.79524 | 10.11049 | 11158 ft | 283 kts | 276° |
| 2026-05-04 13:19 | 43.79581 | 10.08252 | 11331 ft | 301 kts | 264° |
| 2026-05-04 13:19 | 43.79473 | 10.05261 | 11499 ft | 322 kts | 264° |
| 2026-05-04 13:19 | 43.79344 | 10.02080 | 11772 ft | 338 kts | 264° |
| 2026-05-04 13:19 | 43.79225 | 9.98929 | 12328 ft | 343 kts | 264° |
| 2026-05-04 13:20 | 43.79109 | 9.95625 | 13082 ft | 343 kts | 265° |
| 2026-05-04 13:20 | 43.79000 | 9.92331 | 13905 ft | 343 kts | 265° |
| 2026-05-04 13:20 | 43.78892 | 9.89022 | 14557 ft | 346 kts | 265° |
| 2026-05-04 13:20 | 43.78782 | 9.85675 | 15208 ft | 349 kts | 266° |
| 2026-05-04 13:21 | 43.78658 | 9.82312 | 15883 ft | 351 kts | 265° |
| 2026-05-04 13:21 | 43.78507 | 9.78933 | 16581 ft | 353 kts | 265° |
| 2026-05-04 13:21 | 43.78348 | 9.75524 | 17211 ft | 357 kts | 265° |
| 2026-05-04 13:21 | 43.78189 | 9.72089 | 17866 ft | 359 kts | 265° |
| 2026-05-04 13:22 | 43.78031 | 9.68628 | 18482 ft | 362 kts | 265° |
| 2026-05-04 13:22 | 43.77871 | 9.65129 | 19031 ft | 365 kts | 265° |
| 2026-05-04 13:22 | 43.77980 | 9.61601 | 19537 ft | 372 kts | 281° |
| 2026-05-04 13:22 | 43.78948 | 9.58264 | 20075 ft | 380 kts | 298° |
| 2026-05-04 13:23 | 43.80629 | 9.55408 | 20616 ft | 387 kts | 313° |
| 2026-05-04 13:23 | 43.82603 | 9.52847 | 21137 ft | 391 kts | 315° |
| 2026-05-04 13:23 | 43.84629 | 9.50307 | 21642 ft | 395 kts | 315° |
| 2026-05-04 13:23 | 43.86675 | 9.47753 | 22133 ft | 398 kts | 315° |
| 2026-05-04 13:24 | 43.88733 | 9.45167 | 22649 ft | 401 kts | 315° |
| 2026-05-04 13:24 | 43.90803 | 9.42545 | 23145 ft | 404 kts | 314° |
| 2026-05-04 13:24 | 43.92847 | 9.39936 | 23634 ft | 407 kts | 314° |
| 2026-05-04 13:25 | 43.97020 | 9.34574 | 24510 ft | 410 kts | 314° |
| 2026-05-04 13:25 | 43.99140 | 9.31839 | 24963 ft | 411 kts | 314° |
| 2026-05-04 13:25 | 44.01198 | 9.29182 | 25381 ft | 413 kts | 314° |
| 2026-05-04 13:25 | 44.03305 | 9.26459 | 25788 ft | 415 kts | 314° |
| 2026-05-04 13:26 | 44.05446 | 9.23689 | 26194 ft | 417 kts | 314° |
| 2026-05-04 13:26 | 44.07549 | 9.20964 | 26520 ft | 420 kts | 314° |
| 2026-05-04 13:26 | 44.09695 | 9.18182 | 26907 ft | 422 kts | 314° |
| 2026-05-04 13:26 | 44.11842 | 9.15398 | 27316 ft | 423 kts | 314° |
| 2026-05-04 13:27 | 44.14002 | 9.12593 | 27709 ft | 425 kts | 314° |
| 2026-05-04 13:27 | 44.16163 | 9.09784 | 28080 ft | 426 kts | 314° |
| 2026-05-04 13:27 | 44.18333 | 9.06960 | 28451 ft | 428 kts | 313° |
| 2026-05-04 13:27 | 44.20569 | 9.04192 | 28795 ft | 432 kts | 317° |
| 2026-05-04 13:28 | 44.22954 | 9.01632 | 29152 ft | 435 kts | 319° |
| 2026-05-04 13:28 | 44.25329 | 8.99207 | 29497 ft | 437 kts | 320° |
| 2026-05-04 13:28 | 44.27800 | 8.96722 | 29769 ft | 440 kts | 320° |
| 2026-05-04 13:28 | 44.30291 | 8.94212 | 30008 ft | 444 kts | 320° |
| 2026-05-04 13:29 | 44.32793 | 8.91672 | 30332 ft | 444 kts | 320° |
| 2026-05-04 13:29 | 44.35276 | 8.89131 | 30751 ft | 442 kts | 320° |
| 2026-05-04 13:29 | 44.37739 | 8.86596 | 31205 ft | 438 kts | 319° |
| 2026-05-04 13:29 | 44.40184 | 8.84066 | 31601 ft | 436 kts | 319° |
| 2026-05-04 13:30 | 44.42621 | 8.81536 | 31929 ft | 436 kts | 319° |
| 2026-05-04 13:30 | 44.45055 | 8.79001 | 32268 ft | 435 kts | 319° |
| 2026-05-04 13:30 | 44.47480 | 8.76473 | 32652 ft | 434 kts | 319° |
| 2026-05-04 13:30 | 44.49896 | 8.73953 | 33038 ft | 432 kts | 319° |
| 2026-05-04 13:31 | 44.52271 | 8.71474 | 33397 ft | 431 kts | 318° |
| 2026-05-04 13:31 | 44.54705 | 8.68929 | 33717 ft | 430 kts | 318° |
| 2026-05-04 13:31 | 44.57097 | 8.66426 | 34067 ft | 429 kts | 318° |
| 2026-05-04 13:31 | 44.59486 | 8.63925 | 34359 ft | 428 kts | 318° |
| 2026-05-04 13:32 | 44.61868 | 8.61429 | 34622 ft | 427 kts | 318° |
| 2026-05-04 13:32 | 44.64250 | 8.58929 | 34861 ft | 427 kts | 318° |
| 2026-05-04 13:32 | 44.66626 | 8.56433 | 35117 ft | 426 kts | 318° |
| 2026-05-04 13:32 | 44.68996 | 8.53941 | 35374 ft | 426 kts | 318° |
| 2026-05-04 13:33 | 44.71336 | 8.51477 | 35577 ft | 426 kts | 318° |
| 2026-05-04 13:33 | 44.73736 | 8.48948 | 35812 ft | 425 kts | 318° |
| 2026-05-04 13:33 | 44.76067 | 8.46489 | 36057 ft | 424 kts | 318° |
| 2026-05-04 13:33 | 44.78438 | 8.43984 | 36080 ft | 428 kts | 318° |
| 2026-05-04 13:34 | 44.83237 | 8.38903 | 36109 ft | 435 kts | 318° |
| 2026-05-04 13:34 | 44.88123 | 8.33722 | 36107 ft | 443 kts | 317° |
| 2026-05-04 13:35 | 44.95574 | 8.25804 | 36110 ft | 450 kts | 317° |
| 2026-05-04 13:36 | 45.00574 | 8.20478 | 36099 ft | 452 kts | 317° |
| 2026-05-04 13:36 | 45.05589 | 8.15124 | 36103 ft | 451 kts | 317° |
| 2026-05-04 13:37 | 45.10593 | 8.09769 | 36106 ft | 450 kts | 317° |
| 2026-05-04 13:37 | 45.15582 | 8.04417 | 36116 ft | 450 kts | 317° |
| 2026-05-04 13:38 | 45.20466 | 7.99164 | 36125 ft | 449 kts | 317° |
| 2026-05-04 13:38 | 45.25456 | 7.93785 | 36325 ft | 450 kts | 317° |
| 2026-05-04 13:38 | 45.27939 | 7.91104 | 36581 ft | 448 kts | 317° |
| 2026-05-04 13:39 | 45.30416 | 7.88429 | 36874 ft | 446 kts | 317° |
| 2026-05-04 13:39 | 45.32883 | 7.85760 | 37097 ft | 445 kts | 317° |
| 2026-05-04 13:39 | 45.35351 | 7.83086 | 37235 ft | 446 kts | 317° |
| 2026-05-04 13:39 | 45.37813 | 7.80415 | 37422 ft | 446 kts | 317° |
| 2026-05-04 13:40 | 45.40279 | 7.77737 | 37638 ft | 445 kts | 317° |
| 2026-05-04 13:40 | 45.42732 | 7.75072 | 37856 ft | 444 kts | 316° |
| 2026-05-04 13:40 | 45.45186 | 7.72400 | 37997 ft | 444 kts | 316° |
| 2026-05-04 13:40 | 45.47632 | 7.69738 | 38100 ft | 438 kts | 316° |
| 2026-05-04 13:41 | 45.50039 | 7.67117 | 38137 ft | 435 kts | 316° |
| 2026-05-04 13:41 | 45.54865 | 7.61839 | 38157 ft | 440 kts | 316° |
| 2026-05-04 13:42 | 45.61371 | 7.54705 | 38150 ft | 446 kts | 316° |
| 2026-05-04 13:42 | 45.66320 | 7.49274 | 38167 ft | 450 kts | 317° |
| 2026-05-04 13:43 | 45.71272 | 7.43825 | 38140 ft | 449 kts | 317° |
| 2026-05-04 13:43 | 45.76211 | 7.38376 | 38136 ft | 450 kts | 317° |
| 2026-05-04 13:44 | 45.81198 | 7.32900 | 38136 ft | 453 kts | 319° |
| 2026-05-04 13:44 | 45.86360 | 7.27680 | 38118 ft | 452 kts | 320° |
| 2026-05-04 13:45 | 45.91525 | 7.22510 | 38128 ft | 453 kts | 320° |
| 2026-05-04 13:45 | 45.96669 | 7.17265 | 38102 ft | 453 kts | 320° |
| 2026-05-04 13:46 | 46.01784 | 7.12027 | 38076 ft | 454 kts | 319° |
| 2026-05-04 13:46 | 46.06928 | 7.06749 | 38044 ft | 454 kts | 319° |
| 2026-05-04 13:47 | 46.12068 | 7.01466 | 38035 ft | 454 kts | 319° |
| 2026-05-04 13:47 | 46.17116 | 6.96265 | 38038 ft | 453 kts | 319° |
| 2026-05-04 13:48 | 46.22201 | 6.91013 | 38042 ft | 452 kts | 319° |
| 2026-05-04 13:48 | 46.27310 | 6.85721 | 38039 ft | 452 kts | 319° |
| 2026-05-04 13:49 | 46.32424 | 6.80414 | 38059 ft | 453 kts | 319° |
| 2026-05-04 13:49 | 46.37555 | 6.75075 | 38052 ft | 455 kts | 319° |
| 2026-05-04 13:50 | 46.42707 | 6.69704 | 38056 ft | 457 kts | 319° |
| 2026-05-04 13:50 | 46.47430 | 6.63692 | 38065 ft | 449 kts | 309° |
| 2026-05-04 13:51 | 46.51709 | 6.57074 | 38055 ft | 449 kts | 308° |
| 2026-05-04 13:51 | 46.55987 | 6.50449 | 38048 ft | 450 kts | 308° |
| 2026-05-04 13:52 | 46.62468 | 6.40556 | 38052 ft | 451 kts | 308° |
| 2026-05-04 13:53 | 46.66798 | 6.33960 | 38036 ft | 451 kts | 308° |
| 2026-05-04 13:53 | 46.71126 | 6.27349 | 38039 ft | 451 kts | 308° |
| 2026-05-04 13:54 | 46.77616 | 6.17400 | 38027 ft | 451 kts | 308° |
| 2026-05-04 13:55 | 46.84102 | 6.07419 | 38019 ft | 453 kts | 308° |
| 2026-05-04 13:55 | 46.90510 | 5.97522 | 38017 ft | 453 kts | 308° |
| 2026-05-04 13:56 | 46.94929 | 5.90933 | 38012 ft | 458 kts | 315° |
| 2026-05-04 13:56 | 47.00368 | 5.85920 | 38026 ft | 467 kts | 328° |
| 2026-05-04 13:57 | 47.03266 | 5.83749 | 38019 ft | 468 kts | 328° |
| 2026-05-04 13:58 | 47.14842 | 5.75022 | 38022 ft | 471 kts | 327° |
| 2026-05-04 13:58 | 47.23526 | 5.68304 | 38020 ft | 470 kts | 327° |
| 2026-05-04 13:59 | 47.29313 | 5.63808 | 38012 ft | 470 kts | 327° |
| 2026-05-04 14:00 | 47.37984 | 5.57056 | 38012 ft | 469 kts | 327° |
| 2026-05-04 14:00 | 47.46637 | 5.50294 | 38013 ft | 469 kts | 327° |
| 2026-05-04 14:01 | 47.52130 | 5.45223 | 38000 ft | 461 kts | 314° |
| 2026-05-04 14:01 | 47.56359 | 5.38282 | 38013 ft | 452 kts | 301° |
| 2026-05-04 14:02 | 47.58210 | 5.34513 | 38004 ft | 452 kts | 301° |
| 2026-05-04 14:02 | 47.61881 | 5.26950 | 37990 ft | 453 kts | 301° |
| 2026-05-04 14:03 | 47.65585 | 5.19385 | 37988 ft | 454 kts | 301° |
| 2026-05-04 14:03 | 47.69314 | 5.11821 | 37999 ft | 454 kts | 301° |
| 2026-05-04 14:04 | 47.74919 | 5.00443 | 37980 ft | 456 kts | 301° |
| 2026-05-04 14:04 | 47.78595 | 4.92957 | 37982 ft | 456 kts | 301° |
| 2026-05-04 14:05 | 47.84182 | 4.81532 | 37966 ft | 457 kts | 301° |
| 2026-05-04 14:06 | 47.87909 | 4.73885 | 37969 ft | 456 kts | 301° |
| 2026-05-04 14:06 | 47.91629 | 4.66230 | 37972 ft | 455 kts | 301° |
| 2026-05-04 14:07 | 47.95338 | 4.58575 | 37979 ft | 456 kts | 301° |
| 2026-05-04 14:07 | 47.99048 | 4.50897 | 37969 ft | 457 kts | 301° |
| 2026-05-04 14:08 | 48.02759 | 4.43196 | 37972 ft | 457 kts | 301° |
| 2026-05-04 14:08 | 48.06471 | 4.35471 | 37966 ft | 458 kts | 301° |
| 2026-05-04 14:09 | 48.12032 | 4.23856 | 37978 ft | 458 kts | 301° |
| 2026-05-04 14:10 | 48.17588 | 4.12202 | 37967 ft | 459 kts | 301° |
| 2026-05-04 14:10 | 48.21284 | 4.04423 | 37970 ft | 459 kts | 301° |
| 2026-05-04 14:11 | 48.24930 | 3.96750 | 37968 ft | 460 kts | 302° |
| 2026-05-04 14:11 | 48.31460 | 3.86061 | 37968 ft | 465 kts | 310° |
| 2026-05-04 14:12 | 48.35956 | 3.79168 | 37966 ft | 465 kts | 310° |
| 2026-05-04 14:13 | 48.42664 | 3.68633 | 37968 ft | 465 kts | 309° |
| 2026-05-04 14:13 | 48.47114 | 3.61553 | 37962 ft | 466 kts | 309° |
| 2026-05-04 14:14 | 48.50826 | 3.55631 | 37270 ft | 466 kts | 309° |
| 2026-05-04 14:14 | 48.55325 | 3.48449 | 37987 ft | 463 kts | 309° |
| 2026-05-04 14:14 | 48.57537 | 3.44902 | 37989 ft | 465 kts | 309° |
| 2026-05-04 14:15 | 48.66444 | 3.30585 | 37961 ft | 469 kts | 309° |
| 2026-05-04 14:16 | 48.73133 | 3.19788 | 37967 ft | 469 kts | 309° |
| 2026-05-04 14:17 | 48.79802 | 3.08975 | 37950 ft | 468 kts | 309° |
| 2026-05-04 14:18 | 48.86870 | 2.99058 | 37964 ft | 475 kts | 326° |
| 2026-05-04 14:19 | 48.98380 | 2.89173 | 37957 ft | 475 kts | 327° |
| 2026-05-04 14:19 | 49.04114 | 2.84200 | 37946 ft | 474 kts | 327° |
| 2026-05-04 14:20 | 49.09824 | 2.79179 | 37969 ft | 473 kts | 327° |
| 2026-05-04 14:20 | 49.15527 | 2.74139 | 37972 ft | 474 kts | 326° |
| 2026-05-04 14:21 | 49.24087 | 2.66555 | 37945 ft | 473 kts | 326° |
| 2026-05-04 14:21 | 49.29778 | 2.61498 | 37959 ft | 472 kts | 327° |
| 2026-05-04 14:22 | 49.35455 | 2.56440 | 37954 ft | 471 kts | 327° |
| 2026-05-04 14:22 | 49.41124 | 2.51374 | 37953 ft | 472 kts | 327° |
| 2026-05-04 14:23 | 49.49612 | 2.43771 | 37958 ft | 471 kts | 327° |
| 2026-05-04 14:24 | 49.55653 | 2.39981 | 37981 ft | 474 kts | 341° |
| 2026-05-04 14:24 | 49.61999 | 2.37210 | 37964 ft | 474 kts | 342° |
| 2026-05-04 14:25 | 49.68347 | 2.34437 | 37961 ft | 474 kts | 341° |
| 2026-05-04 14:25 | 49.77860 | 2.30131 | 37937 ft | 476 kts | 341° |
| 2026-05-04 14:26 | 49.84199 | 2.27224 | 37951 ft | 475 kts | 341° |
| 2026-05-04 14:26 | 49.90541 | 2.24309 | 37944 ft | 475 kts | 341° |
| 2026-05-04 14:27 | 49.96882 | 2.21389 | 37958 ft | 475 kts | 341° |
| 2026-05-04 14:27 | 50.03209 | 2.18469 | 37952 ft | 475 kts | 341° |
| 2026-05-04 14:28 | 50.09544 | 2.15536 | 37951 ft | 474 kts | 341° |
| 2026-05-04 14:28 | 50.15869 | 2.12600 | 37948 ft | 474 kts | 341° |
| 2026-05-04 14:29 | 50.28509 | 2.06708 | 37950 ft | 474 kts | 341° |
| 2026-05-04 14:30 | 50.33754 | 2.04235 | 37962 ft | 473 kts | 339° |
| 2026-05-04 14:30 | 50.39450 | 1.99677 | 37970 ft | 467 kts | 321° |
| 2026-05-04 14:31 | 50.41954 | 1.96451 | 37993 ft | 465 kts | 316° |
| 2026-05-04 14:32 | 50.51650 | 1.82941 | 38000 ft | 466 kts | 316° |
| 2026-05-04 14:32 | 50.56534 | 1.76234 | 37993 ft | 467 kts | 316° |
| 2026-05-04 14:33 | 50.61432 | 1.69513 | 37990 ft | 467 kts | 316° |
| 2026-05-04 14:33 | 50.66321 | 1.62776 | 37989 ft | 467 kts | 316° |
| 2026-05-04 14:34 | 50.71203 | 1.56020 | 37986 ft | 467 kts | 316° |
| 2026-05-04 14:34 | 50.76078 | 1.49254 | 37988 ft | 467 kts | 316° |
| 2026-05-04 14:35 | 50.80941 | 1.42489 | 37994 ft | 467 kts | 316° |
| 2026-05-04 14:35 | 50.85686 | 1.35876 | 38006 ft | 467 kts | 316° |
| 2026-05-04 14:36 | 50.90528 | 1.29105 | 38008 ft | 467 kts | 316° |
| 2026-05-04 14:36 | 50.95394 | 1.22282 | 38012 ft | 468 kts | 316° |
| 2026-05-04 14:37 | 51.00255 | 1.15445 | 38013 ft | 468 kts | 316° |
| 2026-05-04 14:37 | 51.05122 | 1.08580 | 38020 ft | 468 kts | 316° |
| 2026-05-04 14:38 | 51.09907 | 1.01571 | 38013 ft | 467 kts | 314° |
| 2026-05-04 14:38 | 51.14446 | 0.94450 | 38024 ft | 467 kts | 313° |
| 2026-05-04 14:39 | 51.19069 | 0.87159 | 38000 ft | 468 kts | 313° |
| 2026-05-04 14:39 | 51.23710 | 0.79889 | 37990 ft | 468 kts | 314° |
| 2026-05-04 14:40 | 51.30683 | 0.68977 | 37994 ft | 468 kts | 314° |
| 2026-05-04 14:40 | 51.35323 | 0.61690 | 38011 ft | 468 kts | 314° |
| 2026-05-04 14:41 | 51.39962 | 0.54381 | 38011 ft | 468 kts | 313° |
| 2026-05-04 14:42 | 51.49217 | 0.39728 | 38015 ft | 468 kts | 314° |
| 2026-05-04 14:42 | 51.53842 | 0.32374 | 38019 ft | 468 kts | 313° |
| 2026-05-04 14:43 | 51.58470 | 0.24991 | 38013 ft | 468 kts | 313° |
| 2026-05-04 14:43 | 51.63078 | 0.17619 | 38017 ft | 467 kts | 313° |
| 2026-05-04 14:44 | 51.67636 | 0.10253 | 37972 ft | 468 kts | 313° |
| 2026-05-04 14:44 | 51.69926 | 0.06494 | 37599 ft | 472 kts | 313° |
| 2026-05-04 14:44 | 51.72218 | 0.02715 | 37237 ft | 471 kts | 312° |
| 2026-05-04 14:45 | 51.74442 | -0.00956 | 36893 ft | 467 kts | 313° |
| 2026-05-04 14:45 | 51.76674 | -0.04643 | 36494 ft | 464 kts | 313° |
| 2026-05-04 14:45 | 51.78929 | -0.08371 | 36102 ft | 463 kts | 313° |
| 2026-05-04 14:45 | 51.81180 | -0.12095 | 35695 ft | 463 kts | 313° |
| 2026-05-04 14:46 | 51.83428 | -0.15818 | 35267 ft | 462 kts | 313° |
| 2026-05-04 14:46 | 51.85672 | -0.19539 | 34858 ft | 462 kts | 313° |
| 2026-05-04 14:46 | 51.87913 | -0.23260 | 34452 ft | 461 kts | 313° |
| 2026-05-04 14:46 | 51.90152 | -0.26984 | 34036 ft | 461 kts | 312° |
| 2026-05-04 14:47 | 51.92386 | -0.30705 | 33550 ft | 461 kts | 312° |
| 2026-05-04 14:47 | 51.94620 | -0.34432 | 33107 ft | 460 kts | 312° |
| 2026-05-04 14:47 | 51.96846 | -0.38151 | 32685 ft | 459 kts | 312° |
| 2026-05-04 14:47 | 51.99073 | -0.41879 | 32287 ft | 463 kts | 312° |
| 2026-05-04 14:48 | 52.01316 | -0.45639 | 31869 ft | 469 kts | 311° |
| 2026-05-04 14:48 | 52.03588 | -0.49455 | 31451 ft | 470 kts | 311° |
| 2026-05-04 14:48 | 52.05853 | -0.53262 | 31031 ft | 469 kts | 311° |
| 2026-05-04 14:48 | 52.08115 | -0.57069 | 30615 ft | 468 kts | 311° |
| 2026-05-04 14:49 | 52.10372 | -0.60875 | 30212 ft | 467 kts | 311° |
| 2026-05-04 14:49 | 52.12621 | -0.64673 | 29745 ft | 466 kts | 311° |
| 2026-05-04 14:49 | 52.14862 | -0.68466 | 29306 ft | 464 kts | 311° |
| 2026-05-04 14:49 | 52.17100 | -0.72259 | 28864 ft | 463 kts | 311° |
| 2026-05-04 14:50 | 52.19335 | -0.76051 | 28430 ft | 467 kts | 311° |
| 2026-05-04 14:50 | 52.21598 | -0.79899 | 27950 ft | 472 kts | 311° |
| 2026-05-04 14:50 | 52.23892 | -0.83741 | 27511 ft | 474 kts | 314° |
| 2026-05-04 14:50 | 52.26443 | -0.87158 | 27078 ft | 476 kts | 324° |
| 2026-05-04 14:51 | 52.29256 | -0.89987 | 26669 ft | 476 kts | 327° |
| 2026-05-04 14:51 | 52.32113 | -0.92730 | 26210 ft | 476 kts | 328° |
| 2026-05-04 14:51 | 52.34968 | -0.95477 | 25751 ft | 476 kts | 327° |
| 2026-05-04 14:51 | 52.37807 | -0.98254 | 25314 ft | 476 kts | 327° |
| 2026-05-04 14:52 | 52.40538 | -1.00964 | 24889 ft | 476 kts | 327° |
| 2026-05-04 14:52 | 52.43358 | -1.03788 | 24428 ft | 475 kts | 327° |
| 2026-05-04 14:52 | 52.46177 | -1.06619 | 23973 ft | 474 kts | 327° |
| 2026-05-04 14:52 | 52.48978 | -1.09433 | 23487 ft | 471 kts | 327° |
| 2026-05-04 14:53 | 52.51754 | -1.12223 | 22959 ft | 462 kts | 327° |
| 2026-05-04 14:53 | 52.54468 | -1.14954 | 22504 ft | 455 kts | 327° |
| 2026-05-04 14:53 | 52.57166 | -1.17675 | 22080 ft | 454 kts | 327° |
| 2026-05-04 14:53 | 52.59851 | -1.20386 | 21632 ft | 453 kts | 327° |
| 2026-05-04 14:54 | 52.62526 | -1.23090 | 21185 ft | 451 kts | 327° |
| 2026-05-04 14:54 | 52.65198 | -1.25793 | 20754 ft | 449 kts | 327° |
| 2026-05-04 14:54 | 52.67847 | -1.28477 | 20329 ft | 446 kts | 327° |
| 2026-05-04 14:54 | 52.70487 | -1.31156 | 19885 ft | 444 kts | 327° |
| 2026-05-04 14:55 | 52.73113 | -1.33827 | 19359 ft | 442 kts | 327° |
| 2026-05-04 14:55 | 52.75710 | -1.36472 | 18882 ft | 435 kts | 327° |
| 2026-05-04 14:55 | 52.78262 | -1.39076 | 18376 ft | 428 kts | 327° |
| 2026-05-04 14:55 | 52.80778 | -1.41646 | 17824 ft | 423 kts | 327° |
| 2026-05-04 14:56 | 52.83270 | -1.44197 | 17305 ft | 419 kts | 327° |
| 2026-05-04 14:56 | 52.85736 | -1.46724 | 16799 ft | 416 kts | 327° |
| 2026-05-04 14:56 | 52.88185 | -1.49237 | 16311 ft | 412 kts | 327° |
| 2026-05-04 14:56 | 52.90613 | -1.51732 | 15834 ft | 410 kts | 327° |
| 2026-05-04 14:57 | 52.93028 | -1.54217 | 15363 ft | 408 kts | 327° |
| 2026-05-04 14:57 | 52.95429 | -1.56691 | 14894 ft | 406 kts | 327° |
| 2026-05-04 14:57 | 52.97822 | -1.59161 | 14420 ft | 404 kts | 327° |
| 2026-05-04 14:57 | 53.00202 | -1.61618 | 13966 ft | 403 kts | 327° |
| 2026-05-04 14:58 | 53.02568 | -1.64065 | 13461 ft | 400 kts | 327° |
| 2026-05-04 14:58 | 53.04908 | -1.66511 | 12865 ft | 396 kts | 325° |
| 2026-05-04 14:58 | 53.06924 | -1.69556 | 12277 ft | 390 kts | 309° |
| 2026-05-04 14:58 | 53.08605 | -1.73073 | 11744 ft | 387 kts | 308° |
| 2026-05-04 14:59 | 53.10314 | -1.76516 | 11193 ft | 385 kts | 309° |
| 2026-05-04 14:59 | 53.12026 | -1.79863 | 10640 ft | 372 kts | 310° |
| 2026-05-04 14:59 | 53.15271 | -1.86148 | 9567 ft | 344 kts | 310° |
| 2026-05-04 15:00 | 53.16801 | -1.89121 | 9023 ft | 333 kts | 310° |
| 2026-05-04 15:00 | 53.18285 | -1.92009 | 8507 ft | 323 kts | 310° |
| 2026-05-04 15:00 | 53.19699 | -1.94768 | 8161 ft | 311 kts | 309° |
| 2026-05-04 15:01 | 53.22395 | -2.00030 | 7531 ft | 287 kts | 311° |
| 2026-05-04 15:01 | 53.23893 | -2.01940 | 7264 ft | 278 kts | 336° |
| 2026-05-04 15:01 | 53.25771 | -2.02691 | 6896 ft | 274 kts | 358° |
| 2026-05-04 15:01 | 53.27647 | -2.02553 | 6592 ft | 267 kts | 3° |
| 2026-05-04 15:02 | 53.29464 | -2.02313 | 6233 ft | 263 kts | 4° |
| 2026-05-04 15:02 | 53.31273 | -2.02066 | 5868 ft | 259 kts | 4° |
| 2026-05-04 15:02 | 53.33062 | -2.01827 | 5551 ft | 256 kts | 4° |
| 2026-05-04 15:02 | 53.34821 | -2.01597 | 5212 ft | 251 kts | 4° |
| 2026-05-04 15:03 | 53.36540 | -2.01379 | 4878 ft | 244 kts | 4° |
| 2026-05-04 15:03 | 53.38208 | -2.01170 | 4492 ft | 238 kts | 4° |
| 2026-05-04 15:03 | 53.39839 | -2.00968 | 4123 ft | 233 kts | 3° |
| 2026-05-04 15:03 | 53.41435 | -2.00771 | 3828 ft | 226 kts | 4° |
| 2026-05-04 15:04 | 53.42942 | -2.00585 | 3770 ft | 211 kts | 3° |
| 2026-05-04 15:04 | 53.44412 | -2.00457 | 3782 ft | 211 kts | 355° |
| 2026-05-04 15:04 | 53.45706 | -2.01414 | 3790 ft | 206 kts | 311° |
| 2026-05-04 15:04 | 53.46287 | -2.03607 | 3455 ft | 214 kts | 269° |
| 2026-05-04 15:05 | 53.45823 | -2.05892 | 3246 ft | 209 kts | 234° |
| 2026-05-04 15:05 | 53.44919 | -2.07763 | 2965 ft | 204 kts | 232° |
| 2026-05-04 15:05 | 53.44033 | -2.09599 | 2689 ft | 195 kts | 231° |
| 2026-05-04 15:05 | 53.43215 | -2.11284 | 2466 ft | 186 kts | 231° |
| 2026-05-04 15:06 | 53.42402 | -2.12961 | 2195 ft | 182 kts | 231° |
| 2026-05-04 15:06 | 53.41626 | -2.14562 | 1957 ft | 173 kts | 231° |
| 2026-05-04 15:06 | 53.40877 | -2.16111 | 1741 ft | 169 kts | 231° |
| 2026-05-04 15:07 | 53.39465 | -2.19027 | 1312 ft | 153 kts | 231° |
| 2026-05-04 15:07 | 53.38818 | -2.20365 | 1108 ft | 144 kts | 231° |
| 2026-05-04 15:07 | 53.38188 | -2.21652 | 928 ft | 141 kts | 230° |
| 2026-05-04 15:07 | 53.37566 | -2.22939 | 778 ft | 144 kts | 231° |
| 2026-05-04 15:08 | 53.36932 | -2.24258 | 563 ft | 146 kts | 231° |
| 2026-05-04 15:08 | 53.36302 | -2.25579 | 339 ft | 142 kts | 231° |
| 2026-05-04 15:08 | 53.35710 | -2.26800 | 268 ft | 126 kts | 231° |
| 2026-05-04 15:08 | 53.35275 | -2.27702 | 238 ft | 74 kts | 231° |
| 2026-05-04 15:09 | 53.35013 | -2.28255 | 232 ft | 46 kts | 238° |
| 2026-05-04 15:09 | 53.34943 | -2.28641 | 227 ft | 14 kts | 260° |
| 2026-05-04 15:09 | 53.34993 | -2.28744 | 226 ft | 14 kts | 1° |
| 2026-05-04 15:10 | 53.35102 | -2.28569 | 228 ft | 10 kts | 50° |
| 2026-05-04 15:10 | 53.35148 | -2.28473 | 227 ft | 11 kts | 51° |
| 2026-05-04 15:10 | 53.35233 | -2.28298 | 231 ft | 9 kts | 51° |
| 2026-05-04 15:11 | 53.35271 | -2.28224 | 231 ft | 8 kts | 48° |
| 2026-05-04 15:11 | 53.35310 | -2.28157 | 233 ft | 8 kts | 44° |
| 2026-05-04 15:11 | 53.35352 | -2.28089 | 235 ft | 7 kts | 44° |
| 2026-05-04 15:11 | 53.35395 | -2.28019 | 237 ft | 10 kts | 44° |
| 2026-05-04 15:12 | 53.35444 | -2.27938 | 237 ft | 9 kts | 50° |
| 2026-05-04 15:12 | 53.35459 | -2.27834 | 239 ft | 10 kts | 89° |
| 2026-05-04 15:12 | 53.35489 | -2.27725 | 238 ft | 12 kts | 51° |
| 2026-05-04 15:12 | 53.35543 | -2.27615 | 240 ft | 12 kts | 51° |
| 2026-05-04 15:13 | 53.35595 | -2.27506 | 243 ft | 12 kts | 51° |
| 2026-05-04 15:13 | 53.35651 | -2.27389 | 249 ft | 13 kts | 50° |
| 2026-05-04 15:13 | 53.35710 | -2.27269 | 254 ft | 14 kts | 51° |
| 2026-05-04 15:13 | 53.35764 | -2.27156 | 254 ft | 11 kts | 51° |
| 2026-05-04 15:14 | 53.35814 | -2.27050 | 254 ft | 8 kts | 54° |
| 2026-05-04 15:14 | 53.35833 | -2.26998 | 255 ft | 7 kts | 56° |
| 2026-05-04 15:14 | 53.35863 | -2.26917 | 255 ft | 9 kts | 52° |
| 2026-05-04 15:14 | 53.35902 | -2.26842 | 255 ft | 5 kts | 19° |
| 2026-05-04 15:15 | 53.35920 | -2.26894 | 254 ft | 7 kts | 279° |
| 2026-05-04 15:15 | 53.35923 | -2.26965 | 254 ft | 4 kts | 275° |
| 2026-05-04 15:15 | 53.35924 | -2.26986 | 254 ft | 0 kts | 275° |